Conrad, Montana
Current Conditions -  °F | °C
As of 1:56 AM on Thursday 23 Oct 2014 (Local Time) from KCTB Reporting Station
Clear Clear  
Wind Chill: 44°   Ceiling: Unl
Heat Index: 46°   Visibility: 10mi
Dew Point: 35°   Wind: 5mph
Humidity: 66%   Direction: 230°SW
Pressure: 29.74"   Gusts: NA
Location:  48.17°N, 111.95°W
Report Text: KCTB 230756Z AUTO 23004KT 10SM CLR 08/02 A2974 RMK AO2 SLP065 T00780017
Loading
Personal Weather Stations






























Interactive Weather Map
Tropical Storm Tracking
New forecast layout! Learn more

10-Day Weather Forecast

Advertisements
Track Severe Weather on mobile